Terminal Aerodrome Forecast
Issued by NWS Upton, NY

Home | Current Version | Previous Version | Text Only | Print | Product List | Glossary On
Versions: 1 2 3 4 5 6 7 8 9 10 11 12 13 14 15 16 17 18 19 20 21 22 23 24 25 26 27 28 29 30
000
FTUS41 KOKX 230309 AAA
TAFISP
TAF AMD
KISP 230309Z 2303/2324 33018G26KT P6SM SKC
     FM230500 33014G22KT P6SM SKC
     FM230800 33009KT P6SM SKC
     FM231200 33012KT P6SM SKC
     FM231500 32012G19KT P6SM SKC
     FM232000 29009KT P6SM SKC=

USA.gov is the U.S. government's official web portal to all federal, state and local government web resources and services.